Time;durP1;ratioP1;P1;durP2;ratioP2;P2;SDS_P1;SDS_P2;PMS_P1;PMS_P2;Temp;Humidity;BMP_temperature;BMP_pressure;BME280_temperature;BME280_humidity;BME280_pressure;Samples;Min_cycle;Max_cycle;Signal;HPM_P1;HPM_P2
2021/10/02 00:37:11;;;;;;;5.20;4.90;;;16.50;99.90;;;;;;4997460;28;20414;-68
2021/10/02 00:45:00;;;;;;;4.03;3.83;;;16.50;99.90;;;;;;5013027;28;20402;-68
2021/10/02 00:47:28;;;;;;;3.80;3.60;;;16.50;99.90;;;;;;5011910;28;20428;-68
2021/10/02 00:49:55;;;;;;;4.53;4.20;;;16.50;99.90;;;;;;5012900;28;20441;-69
2021/10/02 00:52:21;;;;;;;4.30;4.10;;;16.60;99.90;;;;;;5012056;28;20424;-69
2021/10/02 00:54:48;;;;;;;3.87;3.70;;;16.40;99.90;;;;;;5011665;28;20410;-68
2021/10/02 00:57:15;;;;;;;4.03;3.63;;;16.40;99.90;;;;;;5011546;28;20512;-68
2021/10/02 00:59:41;;;;;;;4.37;4.10;;;16.40;99.90;;;;;;5012649;28;20921;-69
2021/10/02 01:02:17;;;;;;;3.40;3.20;;;16.40;99.90;;;;;;5012696;28;20409;-74
2021/10/02 01:05:04;;;;;;;3.37;3.27;;;16.40;99.90;;;;;;5011452;28;20473;-68
2021/10/02 01:07:58;;;;;;;3.50;3.30;;;16.40;99.90;;;;;;5011636;28;20444;-68
2021/10/02 01:10:38;;;;;;;3.10;3.00;;;16.40;99.90;;;;;;5011930;28;20410;-68
2021/10/02 01:13:13;;;;;;;3.47;3.27;;;16.40;99.90;;;;;;5012608;28;20414;-68
2021/10/02 01:15:51;;;;;;;3.70;3.60;;;16.40;99.90;;;;;;5012713;28;20470;-68
2021/10/02 01:18:27;;;;;;;3.70;3.57;;;16.50;99.90;;;;;;5011416;28;20450;-68
2021/10/02 01:21:15;;;;;;;4.10;3.93;;;16.50;99.90;;;;;;5012535;28;20443;-69
2021/10/02 01:24:15;;;;;;;3.90;3.70;;;16.40;99.90;;;;;;4994586;28;20430;-68
2021/10/02 01:27:13;;;;;;;3.67;3.57;;;16.50;99.90;;;;;;5012059;28;20413;-70
2021/10/02 01:29:41;;;;;;;3.50;3.40;;;16.50;99.90;;;;;;5012468;28;20402;-69
2021/10/02 01:32:29;;;;;;;3.70;3.50;;;16.50;99.90;;;;;;5011258;28;20402;-68
2021/10/02 01:35:23;;;;;;;4.60;4.40;;;16.50;99.90;;;;;;5012540;28;20417;-68
2021/10/02 01:48:46;;;;;;;3.40;3.30;;;16.50;99.90;;;;;;5012383;28;20406;-68
2021/10/02 01:51:13;;;;;;;3.57;3.37;;;16.50;99.90;;;;;;5011585;28;20456;-75
2021/10/02 01:53:42;;;;;;;3.80;3.60;;;16.50;99.90;;;;;;5012095;28;20414;-68
2021/10/02 01:56:14;;;;;;;3.10;3.00;;;16.50;99.90;;;;;;5012203;28;20445;-69
2021/10/02 01:58:40;;;;;;;2.93;2.83;;;16.50;99.90;;;;;;5012162;28;21000;-68
2021/10/02 02:01:06;;;;;;;3.23;3.13;;;16.50;99.90;;;;;;5012413;28;20898;-68
2021/10/02 02:03:37;;;;;;;3.20;3.10;;;16.50;99.90;;;;;;5010736;28;20453;-68
2021/10/02 02:06:03;;;;;;;3.73;3.53;;;16.50;99.90;;;;;;5011817;28;20421;-68
2021/10/02 02:08:31;;;;;;;3.23;3.13;;;16.50;99.90;;;;;;4993871;28;20427;-69
2021/10/02 02:10:59;;;;;;;3.60;3.50;;;16.50;99.90;;;;;;5011778;28;20437;-68
2021/10/02 02:13:26;;;;;;;3.60;3.40;;;16.50;99.90;;;;;;5011202;28;20424;-68
2021/10/02 02:15:54;;;;;;;3.60;3.50;;;16.50;99.90;;;;;;5013196;28;20405;-68
2021/10/02 02:18:24;;;;;;;3.90;3.70;;;16.50;99.90;;;;;;5014847;28;20922;-68
2021/10/02 02:20:59;;;;;;;3.40;3.30;;;16.50;99.90;;;;;;5015415;28;20457;-68
2021/10/02 02:23:27;;;;;;;3.67;3.47;;;16.50;99.90;;;;;;5014811;28;20464;-68
2021/10/02 02:25:54;;;;;;;3.20;3.10;;;16.50;99.90;;;;;;5015547;28;20464;-68
2021/10/02 02:28:21;;;;;;;3.43;3.13;;;16.40;99.90;;;;;;5014375;28;20413;-68
2021/10/02 02:30:48;;;;;;;3.23;3.03;;;16.40;99.90;;;;;;5015456;28;20421;-68
2021/10/02 02:33:18;;;;;;;3.70;3.50;;;16.30;99.90;;;;;;5013535;28;20422;-75
2021/10/02 02:35:45;;;;;;;3.60;3.30;;;16.30;99.90;;;;;;5015593;28;20406;-69
2021/10/02 02:38:11;;;;;;;3.50;3.40;;;16.40;99.90;;;;;;5014911;28;20461;-69
2021/10/02 02:40:37;;;;;;;3.70;3.60;;;16.40;99.90;;;;;;5014513;28;20422;-68
2021/10/02 02:43:04;;;;;;;3.17;3.03;;;16.40;99.90;;;;;;5015200;28;20406;-67
2021/10/02 02:45:30;;;;;;;3.00;2.90;;;16.40;99.90;;;;;;5014373;28;20516;-70
2021/10/02 02:48:12;;;;;;;3.20;3.10;;;16.40;99.90;;;;;;5015325;28;20645;-68
2021/10/02 02:50:55;;;;;;;3.20;3.00;;;16.40;99.90;;;;;;4995025;28;20411;-68
2021/10/02 02:53:59;;;;;;;3.50;3.30;;;16.40;99.90;;;;;;4994589;28;20446;-69
2021/10/02 02:56:29;;;;;;;3.20;3.10;;;16.40;99.90;;;;;;4994621;28;20417;-68
2021/10/02 02:59:01;;;;;;;3.30;3.20;;;16.30;99.90;;;;;;4977882;28;20822;-68
2021/10/02 03:01:28;;;;;;;3.60;3.50;;;16.40;99.90;;;;;;5005960;28;20441;-69
2021/10/02 03:03:55;;;;;;;3.37;3.27;;;16.40;99.90;;;;;;5014497;28;20485;-68
2021/10/02 03:06:22;;;;;;;4.07;3.87;;;16.40;99.90;;;;;;5013958;28;20484;-69
2021/10/02 03:08:54;;;;;;;3.80;3.60;;;16.40;99.90;;;;;;5014277;28;20464;-69
2021/10/02 03:11:23;;;;;;;4.20;3.90;;;16.40;99.90;;;;;;5013890;28;20477;-69
2021/10/02 03:13:54;;;;;;;4.00;3.80;;;16.40;99.90;;;;;;5014669;28;20902;-69
2021/10/02 03:16:23;;;;;;;3.60;3.50;;;16.40;99.90;;;;;;5013749;28;20421;-69
2021/10/02 03:18:55;;;;;;;4.77;4.47;;;16.50;99.90;;;;;;5013801;28;20540;-69
2021/10/02 03:21:22;;;;;;;4.50;4.20;;;16.50;99.90;;;;;;5012354;28;20496;-69
2021/10/02 03:23:50;;;;;;;4.03;3.83;;;16.50;99.90;;;;;;5014334;28;20777;-69
2021/10/02 03:26:16;;;;;;;4.80;4.50;;;16.60;99.90;;;;;;5014196;28;20485;-75
2021/10/02 03:28:43;;;;;;;4.07;3.87;;;16.60;99.90;;;;;;5012945;28;20429;-69
2021/10/02 03:31:09;;;;;;;4.60;4.40;;;16.60;99.90;;;;;;5014007;28;20488;-69
2021/10/02 03:33:36;;;;;;;5.23;4.90;;;16.60;99.90;;;;;;5013297;28;20418;-69
2021/10/02 03:36:02;;;;;;;6.13;5.73;;;16.60;99.90;;;;;;5014429;28;20429;-69
2021/10/02 03:38:28;;;;;;;5.23;4.93;;;16.50;99.90;;;;;;5012962;28;20450;-69
2021/10/02 03:41:02;;;;;;;5.70;5.30;;;16.50;99.90;;;;;;5013838;28;20449;-69
2021/10/02 03:43:30;;;;;;;4.93;4.73;;;16.50;99.90;;;;;;5013262;28;20176;-70
2021/10/02 03:45:57;;;;;;;4.80;4.60;;;16.60;99.90;;;;;;5014200;28;20504;-69
2021/10/02 03:48:23;;;;;;;5.20;4.90;;;16.50;99.90;;;;;;5012918;28;20425;-69
2021/10/02 03:50:49;;;;;;;5.27;4.97;;;16.60;99.90;;;;;;5013625;28;20424;-69
2021/10/02 03:53:15;;;;;;;5.50;5.20;;;16.50;99.90;;;;;;5013416;28;20517;-69
2021/10/02 03:55:40;;;;;;;5.93;5.50;;;16.50;99.90;;;;;;5012506;28;20533;-69
2021/10/02 03:58:06;;;;;;;5.90;5.40;;;16.50;99.90;;;;;;5013135;28;20198;-69
2021/10/02 04:00:32;;;;;;;5.80;5.50;;;16.40;99.90;;;;;;5012949;28;20638;-69
2021/10/02 04:02:58;;;;;;;6.17;5.77;;;16.40;99.90;;;;;;5013838;28;20179;-69
2021/10/02 04:05:23;;;;;;;6.53;6.13;;;16.40;99.90;;;;;;5012625;28;20222;-69
2021/10/02 04:07:49;;;;;;;7.13;6.63;;;16.40;99.90;;;;;;5013642;28;20921;-69
2021/10/02 04:10:15;;;;;;;6.90;6.43;;;16.40;99.90;;;;;;5013767;28;20186;-69
2021/10/02 04:12:41;;;;;;;5.73;5.37;;;16.40;99.90;;;;;;5012752;28;20171;-69
2021/10/02 04:15:07;;;;;;;6.70;6.20;;;16.50;99.90;;;;;;5013545;28;20420;-69
2021/10/02 04:17:34;;;;;;;7.10;6.60;;;16.50;99.90;;;;;;5012250;28;20670;-69
2021/10/02 04:20:00;;;;;;;7.90;7.30;;;16.50;99.90;;;;;;5013616;28;20422;-69
2021/10/02 04:22:25;;;;;;;9.27;8.47;;;16.50;99.90;;;;;;5012103;28;20412;-69
2021/10/02 04:24:51;;;;;;;6.97;6.50;;;16.50;99.90;;;;;;5013384;28;20403;-69
2021/10/02 04:27:17;;;;;;;6.27;5.80;;;16.50;99.90;;;;;;5012011;28;20178;-68
2021/10/02 04:29:43;;;;;;;5.90;5.60;;;16.30;99.90;;;;;;5012266;28;20174;-68
2021/10/02 04:32:08;;;;;;;6.50;6.10;;;16.30;99.90;;;;;;5011981;28;20424;-68
2021/10/02 04:34:34;;;;;;;6.13;5.73;;;16.20;99.90;;;;;;5012435;28;20180;-68
2021/10/02 04:37:01;;;;;;;5.83;5.50;;;16.20;99.90;;;;;;5011682;28;20230;-68
2021/10/02 04:39:26;;;;;;;5.50;5.20;;;16.10;99.90;;;;;;5012160;28;20210;-68
2021/10/02 04:41:53;;;;;;;5.30;5.00;;;16.00;99.90;;;;;;5011667;28;20948;-68
2021/10/02 04:44:19;;;;;;;5.57;5.27;;;16.00;99.90;;;;;;4993416;28;20289;-68
2021/10/02 04:46:45;;;;;;;4.83;4.57;;;15.90;99.90;;;;;;4992678;28;20417;-68
2021/10/02 04:49:11;;;;;;;5.73;5.33;;;15.90;99.90;;;;;;4993293;28;20424;-68
2021/10/02 04:51:37;;;;;;;5.87;5.47;;;15.90;99.90;;;;;;4992499;28;20403;-68
2021/10/02 04:54:03;;;;;;;6.30;5.83;;;15.90;99.90;;;;;;4993033;28;20247;-68
2021/10/02 04:56:29;;;;;;;6.13;5.70;;;15.90;99.90;;;;;;5000110;28;20839;-68
2021/10/02 04:58:55;;;;;;;5.70;5.40;;;15.90;99.90;;;;;;5012797;28;20465;-69
2021/10/02 05:01:21;;;;;;;5.47;5.17;;;16.00;99.90;;;;;;5012623;28;20182;-73
2021/10/02 05:03:47;;;;;;;5.50;5.20;;;16.00;99.90;;;;;;5011946;28;20229;-68
2021/10/02 05:06:13;;;;;;;5.23;4.93;;;16.00;99.90;;;;;;5012774;28;20186;-68
2021/10/02 05:08:39;;;;;;;6.70;6.30;;;16.00;99.90;;;;;;5011947;28;20417;-69
2021/10/02 05:11:06;;;;;;;5.50;5.30;;;16.00;99.90;;;;;;5010872;28;20430;-68
2021/10/02 05:13:33;;;;;;;5.30;5.00;;;16.10;99.90;;;;;;5011963;28;20969;-68
2021/10/02 05:16:01;;;;;;;5.83;5.50;;;16.10;99.90;;;;;;5012213;28;20913;-68
2021/10/02 05:18:27;;;;;;;5.53;5.13;;;16.10;99.90;;;;;;5011701;28;20457;-69
2021/10/02 05:20:52;;;;;;;5.83;5.43;;;16.10;99.90;;;;;;5012645;28;20512;-68
2021/10/02 05:23:18;;;;;;;6.27;5.97;;;16.10;99.90;;;;;;5012351;28;20519;-68
2021/10/02 05:25:44;;;;;;;6.37;5.97;;;16.10;99.90;;;;;;5011731;28;20320;-68
2021/10/02 05:28:10;;;;;;;5.60;5.37;;;16.00;99.90;;;;;;5012245;28;20217;-68
2021/10/02 05:30:36;;;;;;;6.17;5.87;;;16.00;99.90;;;;;;5011596;28;20417;-69
2021/10/02 05:33:04;;;;;;;5.77;5.47;;;16.10;99.90;;;;;;5011895;28;20266;-69
2021/10/02 05:35:33;;;;;;;6.03;5.70;;;16.10;99.90;;;;;;4991932;28;20192;-68
2021/10/02 05:38:00;;;;;;;6.43;6.03;;;16.00;99.90;;;;;;4992875;28;20468;-68
2021/10/02 05:40:26;;;;;;;6.30;6.00;;;15.90;99.90;;;;;;4992308;28;20418;-75
2021/10/02 05:42:52;;;;;;;5.97;5.57;;;16.00;99.90;;;;;;4992728;28;20443;-68
2021/10/02 05:45:18;;;;;;;6.00;5.70;;;16.10;99.90;;;;;;4991334;28;20415;-68
2021/10/02 05:47:44;;;;;;;5.47;5.17;;;16.10;99.90;;;;;;5009632;28;21041;-68
2021/10/02 05:50:10;;;;;;;6.00;5.60;;;16.10;99.90;;;;;;5012391;28;20414;-68
2021/10/02 05:52:35;;;;;;;4.97;4.70;;;16.10;99.90;;;;;;5015136;28;20269;-68
2021/10/02 05:55:01;;;;;;;5.10;4.80;;;16.20;99.90;;;;;;5015995;28;20183;-68
2021/10/02 05:57:27;;;;;;;5.20;4.90;;;16.30;99.90;;;;;;5015392;28;20614;-75
2021/10/02 05:59:53;;;;;;;5.03;4.73;;;16.30;99.90;;;;;;5015474;28;20183;-69
2021/10/02 06:02:18;;;;;;;4.13;3.93;;;16.30;99.90;;;;;;5014599;28;20972;-68
2021/10/02 06:04:44;;;;;;;4.10;3.90;;;16.30;99.90;;;;;;5014776;28;21067;-68
2021/10/02 06:07:10;;;;;;;3.80;3.60;;;16.40;99.90;;;;;;5014748;28;20261;-68
2021/10/02 06:09:36;;;;;;;4.10;3.90;;;16.40;99.90;;;;;;5014817;28;21013;-68
2021/10/02 06:12:02;;;;;;;3.93;3.83;;;16.40;99.90;;;;;;5015262;28;20205;-68
2021/10/02 06:14:28;;;;;;;3.77;3.57;;;16.40;99.90;;;;;;5014689;28;20774;-69
2021/10/02 06:16:54;;;;;;;4.77;4.47;;;16.40;99.90;;;;;;5012816;28;20425;-68
2021/10/02 06:19:20;;;;;;;3.60;3.50;;;16.40;99.90;;;;;;5015367;28;20203;-68
2021/10/02 06:21:46;;;;;;;5.40;4.40;;;16.40;99.90;;;;;;5014404;28;20190;-68
2021/10/02 06:24:12;;;;;;;4.00;3.80;;;16.40;99.90;;;;;;5014288;28;20456;-68
2021/10/02 06:26:39;;;;;;;3.87;3.67;;;16.40;99.90;;;;;;5014557;28;20410;-68
2021/10/02 06:29:06;;;;;;;4.00;3.80;;;16.40;99.90;;;;;;5015684;28;20501;-68
2021/10/02 06:31:32;;;;;;;3.83;3.63;;;16.40;99.90;;;;;;5014315;28;20897;-68
2021/10/02 06:33:58;;;;;;;3.10;3.00;;;16.50;99.90;;;;;;5015215;28;20473;-68
2021/10/02 06:36:26;;;;;;;3.60;3.40;;;16.50;99.90;;;;;;5010793;28;20434;-68
2021/10/02 06:38:53;;;;;;;3.13;3.03;;;16.50;99.90;;;;;;4994505;28;20290;-68
2021/10/02 06:41:19;;;;;;;3.60;3.50;;;16.50;99.90;;;;;;4995759;28;20419;-70
2021/10/02 06:43:45;;;;;;;4.20;3.90;;;16.50;99.90;;;;;;5008850;28;20425;-71
2021/10/02 06:46:10;;;;;;;3.33;3.23;;;16.60;99.90;;;;;;5015775;28;20193;-68
2021/10/02 06:48:36;;;;;;;3.17;3.07;;;16.60;99.90;;;;;;5007723;28;20539;-68
2021/10/02 06:51:02;;;;;;;3.33;3.23;;;16.70;99.90;;;;;;4998580;28;20634;-68
2021/10/02 06:53:27;;;;;;;3.30;3.10;;;16.80;99.90;;;;;;4999600;28;20180;-73
2021/10/02 06:55:53;;;;;;;3.40;3.10;;;16.70;99.90;;;;;;4993908;28;20176;-67
2021/10/02 06:58:19;;;;;;;3.57;3.43;;;16.70;99.90;;;;;;5006819;28;20202;-68
2021/10/02 07:00:44;;;;;;;3.50;3.30;;;16.70;99.90;;;;;;5003485;28;20197;-68
2021/10/02 07:03:10;;;;;;;4.13;3.93;;;16.70;99.90;;;;;;5014340;28;20623;-68
2021/10/02 07:05:36;;;;;;;3.53;3.33;;;16.80;99.90;;;;;;5014156;28;20194;-67
2021/10/02 07:08:02;;;;;;;3.60;3.40;;;16.80;99.90;;;;;;5014626;28;20179;-67
2021/10/02 07:10:29;;;;;;;3.50;3.30;;;16.80;99.90;;;;;;5013501;28;20270;-67
2021/10/02 07:12:55;;;;;;;4.20;4.00;;;16.50;99.90;;;;;;5013977;28;20174;-68
2021/10/02 07:15:21;;;;;;;3.70;3.50;;;16.50;99.90;;;;;;5013839;28;20422;-66
2021/10/02 07:17:47;;;;;;;3.47;3.27;;;16.40;99.90;;;;;;5011935;28;20449;-66
2021/10/02 07:20:14;;;;;;;3.33;3.13;;;16.30;99.90;;;;;;5013966;28;20912;-66
2021/10/02 07:22:41;;;;;;;3.73;3.57;;;16.30;99.90;;;;;;5013926;28;20499;-66
2021/10/02 07:25:12;;;;;;;3.17;2.87;;;16.30;99.90;;;;;;5014294;28;20418;-68
2021/10/02 07:27:40;;;;;;;3.30;3.20;;;16.40;99.90;;;;;;5013320;28;20421;-69
2021/10/02 07:30:07;;;;;;;3.17;2.97;;;16.30;99.90;;;;;;5014060;28;20426;-68
2021/10/02 07:32:33;;;;;;;3.20;3.10;;;16.30;99.90;;;;;;5012971;28;20484;-75
2021/10/02 07:34:59;;;;;;;3.20;3.10;;;16.30;99.90;;;;;;5013639;28;20425;-69
2021/10/02 07:37:25;;;;;;;3.40;3.20;;;16.30;99.90;;;;;;5014028;28;20436;-70
2021/10/02 07:39:51;;;;;;;3.67;3.47;;;16.30;99.90;;;;;;5012979;28;20191;-68
2021/10/02 07:42:18;;;;;;;3.70;3.50;;;16.30;99.90;;;;;;5014589;28;20418;-68
2021/10/02 07:44:49;;;;;;;3.80;3.50;;;16.30;99.90;;;;;;5013849;28;20424;-69
2021/10/02 07:47:18;;;;;;;3.77;3.57;;;16.20;99.90;;;;;;5014678;28;20766;-69
2021/10/02 07:49:44;;;;;;;4.37;3.60;;;16.10;99.90;;;;;;5012531;28;20786;-69
2021/10/02 07:52:10;;;;;;;3.60;3.40;;;16.20;99.90;;;;;;5014677;28;20417;-69
2021/10/02 07:54:40;;;;;;;4.40;4.10;;;16.10;99.90;;;;;;5013356;28;20417;-69
2021/10/02 07:57:07;;;;;;;4.00;3.80;;;16.20;99.90;;;;;;5014027;28;20519;-69
2021/10/02 07:59:32;;;;;;;3.43;3.33;;;16.20;99.90;;;;;;5009106;28;20448;-70
2021/10/02 08:01:59;;;;;;;3.90;3.70;;;16.30;99.90;;;;;;5014167;28;20419;-69
2021/10/02 08:04:25;;;;;;;3.97;3.77;;;16.30;99.90;;;;;;5013393;28;20218;-69
2021/10/02 08:06:51;;;;;;;3.80;3.60;;;16.40;99.90;;;;;;5028370;28;20694;-69
2021/10/02 08:09:17;;;;;;;3.60;3.40;;;16.40;99.90;;;;;;5012093;28;20186;-69
2021/10/02 08:11:43;;;;;;;3.23;2.90;;;16.30;99.90;;;;;;5012622;28;20246;-69
2021/10/02 08:14:10;;;;;;;3.30;3.20;;;16.30;99.90;;;;;;5012894;28;20425;-69
2021/10/02 08:16:37;;;;;;;3.60;3.40;;;16.30;99.90;;;;;;5012205;28;20432;-69
2021/10/02 08:19:07;;;;;;;3.60;3.40;;;16.30;99.90;;;;;;5013188;28;20863;-69
2021/10/02 08:21:37;;;;;;;3.30;3.10;;;16.20;99.90;;;;;;5013248;28;20410;-76
2021/10/02 08:24:03;;;;;;;3.70;3.50;;;16.20;99.90;;;;;;5011598;28;20426;-68
2021/10/02 08:26:30;;;;;;;3.67;3.47;;;16.30;99.90;;;;;;5012688;28;20440;-68
2021/10/02 08:28:58;;;;;;;3.60;3.33;;;16.40;99.90;;;;;;5002082;28;20424;-68
2021/10/02 08:31:24;;;;;;;4.33;3.90;;;16.50;99.90;;;;;;5013748;28;20447;-68
2021/10/02 08:33:51;;;;;;;3.53;3.33;;;16.50;99.90;;;;;;5012050;28;20785;-69
2021/10/02 08:36:17;;;;;;;3.60;3.40;;;16.50;99.90;;;;;;5013336;28;20426;-69
2021/10/02 08:38:44;;;;;;;3.63;3.43;;;16.40;99.90;;;;;;5012869;28;20515;-68
2021/10/02 08:41:10;;;;;;;3.40;3.30;;;16.30;99.90;;;;;;5012227;28;20193;-69
2021/10/02 08:43:38;;;;;;;3.40;3.20;;;16.40;99.90;;;;;;5012618;28;20775;-69
2021/10/02 08:46:08;;;;;;;3.80;3.60;;;16.40;99.90;;;;;;5012607;28;20485;-73
2021/10/02 08:48:34;;;;;;;3.93;3.73;;;16.50;99.90;;;;;;5012070;28;20437;-82
2021/10/02 08:51:02;;;;;;;3.80;3.47;;;16.40;99.90;;;;;;5011677;28;20444;-69
2021/10/02 08:53:33;;;;;;;3.50;3.30;;;16.40;99.90;;;;;;5013684;28;20467;-69
2021/10/02 08:56:03;;;;;;;3.67;3.47;;;16.40;99.90;;;;;;5012107;28;20429;-69
2021/10/02 08:58:29;;;;;;;3.00;2.90;;;16.50;99.90;;;;;;5013025;28;20464;-69
2021/10/02 09:00:57;;;;;;;3.70;3.50;;;16.50;99.90;;;;;;5013104;28;20430;-69
2021/10/02 09:03:23;;;;;;;3.63;3.53;;;16.50;99.90;;;;;;5013103;28;20493;-70
2021/10/02 09:05:49;;;;;;;3.47;3.27;;;16.70;99.90;;;;;;5011210;28;20791;-69
2021/10/02 09:08:15;;;;;;;4.07;3.87;;;16.80;99.90;;;;;;5011721;28;20426;-69
2021/10/02 09:10:41;;;;;;;3.30;3.10;;;16.80;99.90;;;;;;5012345;28;20171;-70
2021/10/02 09:13:07;;;;;;;3.70;3.50;;;16.70;99.90;;;;;;5011504;28;20446;-69
2021/10/02 09:15:33;;;;;;;3.57;3.37;;;16.80;99.90;;;;;;5011745;28;20175;-69
2021/10/02 09:17:59;;;;;;;5.53;3.40;;;16.70;99.90;;;;;;5010941;28;20461;-69
2021/10/02 09:20:26;;;;;;;3.60;3.40;;;16.70;99.90;;;;;;5011948;28;20896;-69
2021/10/02 09:23:01;;;;;;;3.20;3.10;;;16.70;99.90;;;;;;5011982;28;20468;-69
2021/10/02 09:25:33;;;;;;;3.47;3.27;;;16.70;99.90;;;;;;5012169;28;20755;-69
2021/10/02 09:28:09;;;;;;;3.90;3.70;;;16.70;99.90;;;;;;5012716;28;20557;-69
2021/10/02 09:30:37;;;;;;;3.80;3.60;;;16.70;99.90;;;;;;5009970;28;20837;-73
2021/10/02 09:33:14;;;;;;;3.93;3.73;;;16.80;99.90;;;;;;4997114;28;20779;-70
2021/10/02 09:35:42;;;;;;;3.40;3.20;;;16.70;99.90;;;;;;5012438;28;20414;-70
2021/10/02 09:38:17;;;;;;;3.77;3.57;;;16.70;99.90;;;;;;5011697;28;20548;-69
2021/10/02 09:41:01;;;;;;;3.63;3.33;;;16.70;99.90;;;;;;5012353;28;20488;-69
2021/10/02 09:43:29;;;;;;;3.10;3.00;;;16.70;99.90;;;;;;5011966;28;20460;-69
2021/10/02 09:45:55;;;;;;;3.57;3.13;;;16.70;99.90;;;;;;5011862;28;20512;-69
2021/10/02 09:48:30;;;;;;;4.30;4.00;;;16.80;99.90;;;;;;5010919;28;20985;-69
2021/10/02 09:51:06;;;;;;;3.50;3.30;;;16.80;99.90;;;;;;5010800;28;20177;-69
2021/10/02 09:53:40;;;;;;;3.60;3.30;;;16.80;99.90;;;;;;5012043;28;20452;-69
2021/10/02 09:56:09;;;;;;;3.77;3.57;;;16.70;99.90;;;;;;5002982;28;20929;-69
2021/10/02 09:58:37;;;;;;;3.43;3.23;;;16.60;99.90;;;;;;5012785;28;20508;-69
2021/10/02 10:01:05;;;;;;;3.70;3.50;;;16.70;99.90;;;;;;4995719;28;20439;-69
2021/10/02 10:03:46;;;;;;;4.33;4.03;;;16.60;99.90;;;;;;4991636;28;20536;-69
2021/10/02 10:06:17;;;;;;;3.43;3.23;;;16.70;99.90;;;;;;4993245;28;20461;-69
2021/10/02 10:08:43;;;;;;;3.67;3.47;;;16.70;99.90;;;;;;4991941;28;20478;-69
2021/10/02 10:11:11;;;;;;;3.53;3.23;;;16.80;99.90;;;;;;4992805;28;20803;-69
2021/10/02 10:13:38;;;;;;;3.80;3.50;;;16.80;99.90;;;;;;4992971;28;20423;-69
2021/10/02 10:16:09;;;;;;;3.03;2.93;;;16.80;99.90;;;;;;4992797;28;20423;-69
2021/10/02 10:18:39;;;;;;;4.37;3.67;;;16.90;99.90;;;;;;4992530;28;20446;-69
2021/10/02 10:21:11;;;;;;;3.37;3.10;;;16.90;99.90;;;;;;4991815;28;20422;-69
2021/10/02 10:23:45;;;;;;;3.53;3.40;;;16.90;99.90;;;;;;4992625;28;20906;-69
2021/10/02 10:26:19;;;;;;;3.27;3.10;;;17.00;99.90;;;;;;4975477;28;20962;-69
2021/10/02 10:28:48;;;;;;;3.60;3.40;;;17.10;99.90;;;;;;4974711;28;20430;-71
2021/10/02 10:31:15;;;;;;;3.33;3.20;;;17.10;99.90;;;;;;4982238;28;20503;-71
2021/10/02 10:33:44;;;;;;;3.50;3.30;;;17.10;99.90;;;;;;4982705;28;20462;-70
2021/10/02 10:36:12;;;;;;;3.77;3.53;;;17.20;99.90;;;;;;4992824;28;20514;-69
2021/10/02 10:38:39;;;;;;;3.30;3.20;;;17.30;99.90;;;;;;4996247;28;20500;-69
2021/10/02 10:41:06;;;;;;;4.00;3.80;;;17.30;99.90;;;;;;4995848;28;20423;-72
2021/10/02 10:43:35;;;;;;;3.60;3.40;;;17.30;99.90;;;;;;4996054;28;20546;-70
2021/10/02 10:46:13;;;;;;;3.70;3.50;;;17.40;99.90;;;;;;4994693;28;21055;-70
2021/10/02 10:48:39;;;;;;;6.73;6.30;;;17.50;99.90;;;;;;4992486;28;20419;-72
2021/10/02 10:51:08;;;;;;;7.60;6.90;;;17.40;99.90;;;;;;4980979;28;20430;-70
2021/10/02 10:53:38;;;;;;;12.43;11.23;;;17.30;99.90;;;;;;4979681;28;20436;-69
2021/10/02 10:56:05;;;;;;;3.60;3.30;;;17.40;99.90;;;;;;4981013;28;20411;-78
2021/10/02 10:58:33;;;;;;;49.80;36.63;;;17.40;99.90;;;;;;4991010;28;20458;-69
2021/10/02 11:01:01;;;;;;;12.03;10.83;;;17.40;99.90;;;;;;4987756;28;20945;-77
2021/10/02 11:03:42;;;;;;;4.03;3.70;;;17.40;99.90;;;;;;4998491;28;20462;-69
2021/10/02 11:06:18;;;;;;;3.33;3.13;;;17.40;99.90;;;;;;5014806;28;20437;-69
2021/10/02 11:09:07;;;;;;;3.60;3.40;;;17.30;99.90;;;;;;5005796;28;20415;-84
2021/10/02 11:11:51;;;;;;;3.53;3.33;;;17.30;99.90;;;;;;5009983;28;20936;-69
2021/10/02 11:14:19;;;;;;;3.80;3.60;;;17.20;99.90;;;;;;5014543;28;20472;-69
2021/10/02 11:17:01;;;;;;;3.70;3.50;;;17.30;99.90;;;;;;5013820;28;20569;-83
2021/10/02 11:19:37;;;;;;;3.40;3.10;;;17.40;99.90;;;;;;5014362;28;20457;-69
2021/10/02 11:23:10;;;;;;;4.80;4.40;;;17.50;99.90;;;;;;5013918;28;20410;-70
2021/10/02 11:25:36;;;;;;;3.07;2.97;;;17.70;99.90;;;;;;4902997;29;20891;-69
2021/10/02 11:28:38;;;;;;;3.50;3.20;;;17.90;99.90;;;;;;4959491;28;20497;-69
2021/10/02 11:31:20;;;;;;;3.63;3.40;;;18.10;99.90;;;;;;4917218;29;20420;-71
2021/10/02 11:33:54;;;;;;;3.53;3.43;;;18.30;99.90;;;;;;5003981;28;20431;-70
2021/10/02 11:36:32;;;;;;;4.00;3.80;;;18.40;99.90;;;;;;4994390;28;20461;-69
2021/10/02 11:39:26;;;;;;;4.17;3.97;;;18.40;99.90;;;;;;5009577;28;20453;-69
2021/10/02 11:42:13;;;;;;;4.87;4.57;;;18.40;99.90;;;;;;5004889;28;20450;-68
2021/10/02 11:44:48;;;;;;;3.83;3.53;;;18.40;99.90;;;;;;5009148;28;20402;-69
2021/10/02 11:47:34;;;;;;;4.90;4.70;;;18.40;99.90;;;;;;4994768;28;20772;-69
2021/10/02 11:50:12;;;;;;;3.20;3.10;;;18.40;99.90;;;;;;4999973;28;20457;-69
2021/10/02 11:52:42;;;;;;;3.00;2.83;;;18.40;99.90;;;;;;5013651;28;20413;-69
2021/10/02 11:55:46;;;;;;;3.47;3.33;;;18.40;99.90;;;;;;5013130;28;21221;-68
2021/10/02 11:58:13;;;;;;;2.57;2.40;;;18.40;99.90;;;;;;5005965;28;20585;-68
2021/10/02 12:00:45;;;;;;;2.80;2.60;;;18.40;99.90;;;;;;4998463;28;20484;-68
2021/10/02 12:03:13;;;;;;;3.23;3.13;;;18.20;99.90;;;;;;5013633;28;20416;-68
2021/10/02 12:05:47;;;;;;;2.90;2.80;;;18.20;99.90;;;;;;5014173;28;20492;-71
2021/10/02 12:08:14;;;;;;;2.97;2.87;;;18.20;99.90;;;;;;5006462;28;20910;-72
2021/10/02 12:11:10;;;;;;;3.97;3.67;;;18.20;99.90;;;;;;4994313;28;20415;-72
2021/10/02 12:13:56;;;;;;;3.43;3.20;;;18.30;99.90;;;;;;4994589;28;20399;-72
2021/10/02 12:16:33;;;;;;;3.43;3.27;;;18.40;99.90;;;;;;4994384;28;20422;-72
2021/10/02 12:19:06;;;;;;;120.57;76.33;;;18.40;99.90;;;;;;4993622;28;20844;-72
2021/10/02 12:21:50;;;;;;;8.40;7.70;;;18.40;99.90;;;;;;5001867;28;20426;-72
2021/10/02 12:24:20;;;;;;;3.33;3.23;;;18.30;99.90;;;;;;4994162;28;20399;-72
2021/10/02 12:27:05;;;;;;;3.67;3.47;;;18.30;99.90;;;;;;4999050;28;20414;-77
2021/10/02 12:29:33;;;;;;;3.67;3.47;;;18.30;99.90;;;;;;5013617;28;20556;-72
2021/10/02 12:32:06;;;;;;;3.43;3.33;;;18.40;99.90;;;;;;5013018;28;20398;-73
2021/10/02 12:34:46;;;;;;;3.27;3.17;;;18.40;99.90;;;;;;5012050;28;20437;-72
2021/10/02 12:37:26;;;;;;;3.10;3.00;;;18.50;99.90;;;;;;5011867;28;20437;-68
2021/10/02 12:39:54;;;;;;;2.70;2.60;;;18.50;99.90;;;;;;5012397;28;20441;-69
2021/10/02 12:42:37;;;;;;;3.20;3.10;;;18.30;99.90;;;;;;5013173;28;20411;-69
2021/10/02 12:45:12;;;;;;;4.00;3.80;;;18.30;99.90;;;;;;5011912;28;20984;-69
2021/10/02 12:47:39;;;;;;;3.40;3.30;;;18.40;99.90;;;;;;5010981;28;20457;-69
2021/10/02 12:50:10;;;;;;;3.30;3.10;;;18.50;99.90;;;;;;5011740;28;20517;-69
2021/10/02 12:52:37;;;;;;;3.10;3.00;;;18.30;99.90;;;;;;4993696;28;20506;-69
2021/10/02 12:55:09;;;;;;;3.20;3.10;;;18.40;99.90;;;;;;4999613;28;20846;-68
2021/10/02 12:57:35;;;;;;;3.17;3.00;;;18.50;99.90;;;;;;5013188;28;20410;-68
2021/10/02 13:00:07;;;;;;;3.33;3.23;;;18.60;99.90;;;;;;5012128;28;20468;-69
2021/10/02 13:02:39;;;;;;;3.10;3.00;;;18.60;99.90;;;;;;5012946;28;20486;-68
2021/10/02 13:05:05;;;;;;;3.23;3.13;;;18.60;99.90;;;;;;5011843;28;20461;-69
2021/10/02 13:07:38;;;;;;;3.60;3.40;;;18.50;99.50;;;;;;5012873;28;20825;-68
2021/10/02 13:10:08;;;;;;;3.10;3.00;;;18.40;99.60;;;;;;5012777;28;20849;-69
2021/10/02 13:12:41;;;;;;;3.47;3.30;;;18.30;99.90;;;;;;5000733;28;20450;-70
2021/10/02 13:15:21;;;;;;;3.20;3.10;;;18.30;99.90;;;;;;4992428;28;20439;-71
2021/10/02 13:18:04;;;;;;;3.00;2.90;;;18.20;99.90;;;;;;4993185;28;20402;-70
2021/10/02 13:20:32;;;;;;;2.90;2.80;;;18.30;99.90;;;;;;4993468;28;20430;-70
2021/10/02 13:23:05;;;;;;;2.70;2.60;;;18.30;99.80;;;;;;4992727;28;20435;-70
2021/10/02 13:25:30;;;;;;;3.27;3.07;;;18.20;99.70;;;;;;4993600;28;20411;-70
2021/10/02 13:27:58;;;;;;;3.60;3.50;;;18.20;99.90;;;;;;4992595;28;20433;-71
2021/10/02 13:30:27;;;;;;;3.27;3.17;;;18.30;99.60;;;;;;4993313;28;20287;-70
2021/10/02 13:32:57;;;;;;;3.27;3.17;;;18.30;99.90;;;;;;4992827;28;20417;-71
2021/10/02 13:35:24;;;;;;;4.00;3.80;;;18.20;99.90;;;;;;4992693;28;20419;-70
2021/10/02 13:37:50;;;;;;;3.37;3.20;;;18.20;99.70;;;;;;4992624;28;20422;-78
2021/10/02 13:40:31;;;;;;;4.07;3.87;;;18.20;99.80;;;;;;4993102;28;20513;-70
2021/10/02 13:42:59;;;;;;;3.50;3.30;;;18.10;99.70;;;;;;4992552;28;20404;-70
2021/10/02 13:45:29;;;;;;;3.30;3.20;;;18.10;99.00;;;;;;4993048;28;20406;-70
2021/10/02 13:47:58;;;;;;;3.23;3.13;;;18.10;99.10;;;;;;4992473;28;20425;-70
2021/10/02 13:50:24;;;;;;;2.97;2.80;;;18.10;99.20;;;;;;4992995;28;20411;-70
2021/10/02 13:52:50;;;;;;;3.80;3.60;;;18.10;98.50;;;;;;4992993;28;20399;-70